• Join FlightAware (Why Join?)
  • Login
  • US Flag 
06:23AM EDT


 

Airport Tracker/Info


-or-


 

Live Flight TrackerFlight Track Log ✈ N272AY ✈ 14-Apr-2013 ✈ EDDM / MUC - KPHL

Flight Track Log - Related Links

Times and Time Zones

All times are in EDT time to prevent confusion due to time zone crossing. See the N272AY flight status page for this flight to view local times or setup timezone preferences in your user account.

Time Position Orientation Groundspeed Altitude Reporting Facility
EDT Latitude Longitude Course Direction KTS MPH feet Rate Location/Type
06:24AM 48.3650 11.7960 336° Northwest 131 151 1,100  Level FlightAware
06:25AM 48.3630 11.7650 264° West 182 209 1,800 2,100 Climbing FlightAware
06:25AM 48.3620 11.7470 265° West 177 204 2,500 1,500 Climbing FlightAware
06:26AM 48.3570 11.6600 265° West 175 201 4,100 1,320 Climbing FlightAware
06:27AM 48.3960 11.5860 308° West 246 283 5,400 1,740 Climbing FlightAware
06:28AM 48.4470 11.4870 308° West 265 305 7,800 1,920 Climbing FlightAware
06:29AM 48.4610 11.4790 339° North 269 310 8,200 1,320 Climbing FlightAware
06:30AM 48.5590 11.4380 345° North 327 376 9,700 1,500 Climbing FlightAware
06:31AM 48.6570 11.3880 341° North 353 406 11,700 1,860 Climbing FlightAware
06:32AM 48.7770 11.2880 331° Northwest 367 422 14,400 1,800 Climbing FlightAware
06:33AM 48.8840 11.2000 332° Northwest 372 428 16,400 1,560 Climbing FlightAware
06:35AM 49.0110 11.1360 342° North 392 451 18,300 1,440 Climbing FlightAware
06:36AM 49.1330 11.0730 341° North 395 455 20,000 1,320 Climbing FlightAware
06:37AM 49.2570 11.0090 341° North 411 473 21,500 1,140 Climbing FlightAware
06:38AM 49.3900 10.9360 340° North 418 481 22,800 1,320 Climbing FlightAware
06:39AM 49.4910 10.8310 326° Northwest 414 476 24,500 1,260 Climbing FlightAware
06:41AM 49.6250 10.6880 325° Northwest 427 491 25,900 900 Climbing FlightAware
06:42AM 49.7370 10.5610 324° Northwest 431 496 26,900 900 Climbing FlightAware
06:43AM 49.8260 10.3660 305° West 438 504 28,200 900 Climbing FlightAware
06:44AM 49.8990 10.1480 298° West 441 507 29,300 900 Climbing FlightAware
06:45AM 49.9270 10.0390 292° West 439 505 30,000 840 Climbing FlightAware
06:46AM 49.9620 9.9040 292° West 441 507 30,500 720 Climbing FlightAware
06:47AM 49.9920 9.7850 291° West 440 506 31,100 900 Climbing FlightAware
06:47AM 50.0210 9.6700 291° West 434 499 31,700 600 Climbing FlightAware
06:49AM 50.0850 9.3820 289° West 430 495 32,500 480 Climbing FlightAware
06:50AM 50.1050 9.2720 286° West 428 493 33,000 660 Climbing FlightAware
06:50AM 50.1310 9.1250 285° West 427 491 33,500 600 Climbing FlightAware
06:51AM 50.1610 8.9510 285° West 425 489 34,000 300 Climbing FlightAware
06:52AM 50.1800 8.8420 285° West 423 487 34,000  Level FlightAware
06:53AM 50.2010 8.7150 285° West 421 484 34,000  Level FlightAware
06:53AM 50.2180 8.6180 285° West 423 487 34,000  Level FlightAware
06:54AM 50.2390 8.4900 284° West 425 489 34,000  Level FlightAware
06:55AM 50.2590 8.3710 285° West 426 490 34,000  Level FlightAware
06:55AM 50.2800 8.2720 288° West 424 488 34,000  Level FlightAware
06:56AM 50.3150 8.1230 290° West 423 487 34,000  Level FlightAware
06:57AM 50.3520 7.9620 290° West 420 483 34,000  Level FlightAware
06:58AM 50.3780 7.8470 290° West 424 488 34,000  Level FlightAware
06:58AM 50.4070 7.7160 289° West 427 491 34,000  Level FlightAware
06:59AM 50.4330 7.6010 290° West 425 489 34,000  Level FlightAware
07:00AM 50.4600 7.4830 290° West 426 490 34,000  Level FlightAware
07:00AM 50.4880 7.3550 289° West 427 491 34,000  Level FlightAware
07:01AM 50.5150 7.2330 289° West 426 490 34,000  Level FlightAware
07:02AM 50.5390 7.1230 289° West 426 490 34,000  Level FlightAware
07:04AM 50.6222 6.8182 293° West  Level Estimated
07:05AM 50.6684 6.6469 293° West  Level Estimated
07:06AM 50.7127 6.4819 293° West  Level Estimated
07:07AM 50.7566 6.3166 293° West  Level Estimated
07:08AM 50.8004 6.1511 293° West  Level Estimated
07:09AM 50.8439 5.9852 293° West  Level Estimated
07:10AM 50.8872 5.8190 292° West  Level Estimated
07:11AM 50.9303 5.6525 292° West  Level Estimated
07:12AM 50.9731 5.4857 292° West  Level Estimated
07:13AM 51.0157 5.3186 292° West  Level Estimated
07:13AM 50.9380 5.1100 292° West 433 498 34,000  Level FlightAware
07:13AM 50.9550 5.0050 284° West 432 497 34,000  Level FlightAware
07:14AM 50.9780 4.8680 285° West 431 496 34,000  Level FlightAware
07:15AM 51.0000 4.7300 284° West 431 496 34,000  Level FlightAware
07:16AM 51.0210 4.6050 285° West 430 495 34,000 -1,680 Level FlightAware
07:16AM 51.0219 4.5450 285° West 478 550 32,500 -2,760 Descending FlightAware UK
07:16AM 51.0367 4.4982 297° West 478 550 32,500 3,000 Level FlightAware UK
07:16AM 51.0430 4.4680 297° West 430 495 34,000 1,680 Climbing FlightAware
07:17AM 51.0630 4.3440 284° West 429 494 34,000 -1,500 Level FlightAware
07:17AM 51.0735 4.2807 284° West 474 545 32,500  Descending FlightAware UK
07:18AM 51.0820 4.2230 284° West 429 494 34,000 1,380 Climbing FlightAware
07:18AM 51.1030 4.0900 284° West 428 493 34,000  Level FlightAware
07:19AM 51.1220 3.9660 284° West 429 494 34,000  Level FlightAware
07:20AM 51.1440 3.8260 284° West 429 494 34,000  Level FlightAware
07:21AM 51.1620 3.7040 283° West 429 494 34,000  Level FlightAware
07:21AM 51.1800 3.5910 284° West 429 494 34,000 -1,500 Level FlightAware
07:22AM 51.1918 3.5097 284° West 474 545 32,500 -2,280 Descending FlightAware UK
07:22AM 51.2002 3.4546 284° West 474 545 32,500 3,900 Level FlightAware UK
07:22AM 51.2020 3.4440 284° West 430 495 34,000 2,520 Climbing FlightAware
07:22AM 51.2150 3.3550 284° West 429 494 34,000 -2,940 Level FlightAware
07:22AM 51.2168 3.3441 284° West 474 545 32,500 -2,460 Descending FlightAware UK
07:23AM 51.2334 3.2337 284° West 472 543 32,500 1,620 Level FlightAware UK
07:23AM 51.2390 3.1930 284° West 430 495 34,000  Climbing FlightAware
07:24AM 51.2552 3.0861 284° West 474 545 32,500  Descending FlightAware UK
07:24AM 51.2560 3.0790 284° West 431 496 34,000 1,800 Climbing FlightAware
07:25AM 51.2770 2.9350 283° West 432 497 34,000  Level FlightAware
07:25AM 51.2930 2.8260 283° West 433 498 34,000  Level FlightAware
07:26AM 51.3090 2.7150 283° West 434 499 34,000 -1,560 Level FlightAware
07:26AM 51.3201 2.6383 283° West 476 548 32,500 -2,460 Descending FlightAware UK
07:27AM 51.3281 2.5820 283° West 476 548 32,500 4,260 Level FlightAware UK
07:27AM 51.3280 2.5820 283° West 434 499 34,000  Climbing FlightAware
07:27AM 51.3439 2.4699 283° West 474 545 32,500  Descending FlightAware UK
07:27AM 51.3514 2.4174 283° West 435 501 34,000  Climbing FlightAware ADS-B
07:28AM 51.3597 2.3579 283° West 476 548 32,500  Descending FlightAware UK
07:28AM 51.3668 2.3076 283° West 435 501 34,000  Climbing FlightAware ADS-B
07:28AM 51.3780 2.2263 283° West 474 545 32,500 -2,100 Descending FlightAware UK
07:29AM 51.3860 2.1700 283° West 474 545 32,500 3,000 Level FlightAware UK
07:29AM 51.3890 2.1480 283° West 434 499 34,000 4,680 Climbing FlightAware
07:29AM 51.3940 2.1117 282° West 434 499 34,000 -3,780 Level FlightAware ADS-B
07:29AM 51.4012 2.0577 282° West 474 545 32,500  Descending FlightAware UK
07:30AM 51.4081 2.0092 282° West 434 499 34,000  Climbing FlightAware ADS-B
07:30AM 51.4167 1.9451 282° West 474 545 32,500 120 Descending FlightAware UK
07:30AM 51.4240 1.9028 282° West 437 503 34,100 660 Climbing FlightAware ADS-B
07:31AM 51.4365 1.8335 282° West 474 545 32,900 840 Descending FlightAware UK
07:31AM 51.4432 1.7986 282° West 437 503 34,600 780 Climbing FlightAware ADS-B
07:31AM 51.4537 1.7414 282° West 474 545 33,300 780 Descending FlightAware UK
07:31AM 51.4647 1.6825 282° West 428 493 35,100 780 Climbing FlightAware ADS-B
07:32AM 51.4739 1.6330 282° West 470 541 33,800 780 Descending FlightAware UK
07:32AM 51.4858 1.5693 282° West 425 489 35,600 660 Climbing FlightAware ADS-B
07:33AM 51.5040 1.4722 282° West 466 536 34,400 420 Descending FlightAware UK
07:33AM 51.5173 1.4037 282° West 423 487 36,000 120 Climbing FlightAware ADS-B
07:33AM 51.5282 1.3468 282° West 470 541 34,500  Descending FlightAware UK
07:33AM 51.5349 1.3135 282° West 424 488 36,000  Climbing FlightAware ADS-B
07:34AM 51.5456 1.2577 282° West 470 541 34,500  Descending FlightAware UK
07:34AM 51.5524 1.2234 282° West 423 487 36,000 2,100 Climbing FlightAware ADS-B
07:34AM 51.5703 1.1326 288° West 422 486 36,000 -1,860 Level FlightAware ADS-B
07:35AM 51.5809 1.0789 288° West 470 541 34,500  Descending FlightAware UK
07:35AM 51.5883 1.0421 288° West 422 486 36,000  Climbing FlightAware ADS-B
07:35AM 51.6020 0.9725 288° West 472 543 34,500  Descending FlightAware UK
07:36AM 51.6104 0.9309 288° West 422 486 36,000  Climbing FlightAware ADS-B
07:36AM 51.6234 0.8655 288° West 472 543 34,500  Descending FlightAware UK
07:36AM 51.6284 0.8413 288° West 421 484 36,000  Climbing FlightAware ADS-B
07:36AM 51.6412 0.7770 288° West 472 543 34,500  Descending FlightAware UK
07:37AM 51.6466 0.7506 288° West 421 484 36,000  Climbing FlightAware ADS-B
07:37AM 51.6555 0.7057 288° West 472 543 34,500  Descending FlightAware UK
07:37AM 51.6649 0.6584 288° West 422 486 36,000  Climbing FlightAware ADS-B
07:37AM 51.6765 0.5991 288° West 474 545 34,500  Descending FlightAware UK
07:38AM 51.6829 0.5672 288° West 422 486 36,000 2,160 Climbing FlightAware ADS-B
07:38AM 51.7012 0.4761 288° West 422 486 36,000 -1,860 Level FlightAware ADS-B
07:38AM 51.7123 0.4197 288° West 472 543 34,500  Descending FlightAware UK
07:39AM 51.7195 0.3850 288° West 423 487 36,000 2,040 Climbing FlightAware ADS-B
07:39AM 51.7382 0.2927 288° West 422 486 36,000  Level FlightAware ADS-B
07:40AM 51.7569 0.2015 288° West 421 484 36,000  Level FlightAware ADS-B
07:40AM 51.7665 0.1566 289° West 423 487 36,000  Level FlightAware ADS-B
07:40AM 51.7723 0.1362 295° West 431 496 36,000  Level FlightAware ADS-B
07:40AM 51.7851 0.1027 302° West 443 510 36,000  Level FlightAware ADS-B
07:40AM 51.8001 0.0718 308° West 454 522 36,000  Level FlightAware ADS-B
07:41AM 51.8177 0.0433 315° West 465 535 36,000  Level FlightAware ADS-B
07:41AM 51.8701 -0.0247 321° Northwest 471 542 36,000  Level FlightAware ADS-B
07:42AM 51.9222 -0.0916 322° Northwest 470 541 36,000 -1,920 Level FlightAware ADS-B
07:42AM 51.9515 -0.1297 322° Northwest 468 539 34,500  Descending FlightAware UK
07:42AM 51.9766 -0.1620 322° Northwest 470 541 36,000  Climbing FlightAware ADS-B
07:42AM 52.0020 -0.1951 322° Northwest 468 539 34,500  Descending FlightAware UK
07:43AM 52.0275 -0.2280 322° Northwest 469 540 36,000  Climbing FlightAware ADS-B
07:43AM 52.0525 -0.2610 322° Northwest 466 536 34,500  Descending FlightAware UK
07:43AM 52.0789 -0.2951 322° Northwest 472 543 36,000  Climbing FlightAware ADS-B
07:43AM 52.1033 -0.3272 322° Northwest 468 539 34,500  Descending FlightAware UK
07:44AM 52.1307 -0.3628 322° Northwest 474 545 36,000 1,860 Climbing FlightAware ADS-B
07:44AM 52.1835 -0.4319 321° Northwest 474 545 36,000 -1,860 Level FlightAware ADS-B
07:45AM 52.2154 -0.4737 321° Northwest 470 541 34,500  Descending FlightAware UK
07:45AM 52.2342 -0.4986 321° Northwest 473 544 36,000 3,060 Climbing FlightAware ADS-B
07:45AM 52.2615 -0.5383 318° Northwest 465 535 36,000  Level FlightAware ADS-B
07:45AM 52.2844 -0.5762 315° West 459 528 36,000  Level FlightAware ADS-B
07:46AM 52.3277 -0.6551 312° West 458 527 36,000 -1,740 Level FlightAware ADS-B
07:46AM 52.3584 -0.7112 312° West 468 539 34,500  Descending FlightAware UK
07:46AM 52.3709 -0.7338 312° West 460 529 36,000  Climbing FlightAware ADS-B
07:47AM 52.4009 -0.7887 312° West 468 539 34,500  Descending FlightAware UK
07:47AM 52.4174 -0.8189 312° West 462 532 36,000 2,040 Climbing FlightAware ADS-B
07:47AM 52.4626 -0.9021 312° West 463 533 36,000  Level FlightAware ADS-B
07:48AM 52.5056 -0.9811 312° West 464 534 36,000 -1,980 Level FlightAware ADS-B
07:48AM 52.5285 -1.0233 312° West 472 543 34,500  Descending FlightAware UK
07:48AM 52.5489 -1.0613 312° West 463 533 36,000 1,920 Climbing FlightAware ADS-B
07:49AM 52.5928 -1.1429 312° West 462 532 36,000 -1,800 Level FlightAware ADS-B
07:49AM 52.6218 -1.1967 312° West 464 534 34,500  Descending FlightAware UK
07:49AM 52.6362 -1.2235 312° West 465 535 36,000 2,160 Climbing FlightAware ADS-B
07:50AM 52.6792 -1.3038 311° West 465 535 36,000 -1,800 Level FlightAware ADS-B
07:50AM 52.7064 -1.3550 311° West 470 541 34,500  Descending FlightAware UK
07:50AM 52.7233 -1.3864 311° West 466 536 36,000  Climbing FlightAware ADS-B
07:51AM 52.7660 -1.4666 311° West 472 543 34,500  Descending FlightAware UK
07:51AM 52.7767 -1.4870 311° West 463 533 36,000  Climbing FlightAware ADS-B
07:51AM 52.7998 -1.5305 311° West 470 541 34,500  Descending FlightAware UK
07:52AM 52.8204 -1.5693 311° West 462 532 36,000  Climbing FlightAware ADS-B
07:52AM 52.8416 -1.6096 311° West 468 539 34,500  Descending FlightAware UK
07:52AM 52.8624 -1.6489 311° West 463 533 36,000  Climbing FlightAware ADS-B
07:52AM 52.8838 -1.6899 311° West 468 539 34,500 -2,760 Descending FlightAware UK
07:53AM 52.9091 -1.7379 311° West 470 541 34,500 2,700 Level FlightAware UK
07:53AM 52.9280 -1.7730 311° West 465 535 36,000  Climbing FlightAware
07:53AM 52.9514 -1.8180 311° West 470 541 34,500  Descending FlightAware UK
07:54AM 52.9820 -1.8760 311° West 462 532 36,000  Climbing FlightAware
07:54AM 53.0099 -1.9302 311° West 470 541 34,500 -2,220 Descending FlightAware UK
07:54AM 53.0437 -1.9952 311° West 470 541 34,500 2,700 Level FlightAware UK
07:54AM 53.0530 -2.0130 311° West 463 533 36,000  Climbing FlightAware
07:55AM 53.1100 -2.1229 311° West 468 539 34,500  Descending FlightAware UK
07:55AM 53.1080 -2.1200 311° West 461 531 36,000  Climbing FlightAware
07:55AM 53.1435 -2.1880 311° West 468 539 34,500 -2,280 Descending FlightAware UK
07:56AM 53.1682 -2.2359 311° West 468 539 34,500 4,080 Level FlightAware UK
07:56AM 53.1700 -2.2400 311° West 461 531 36,000  Climbing FlightAware
07:56AM 53.2014 -2.3007 311° West 468 539 34,500  Descending FlightAware UK
07:56AM 53.2110 -2.3200 311° West 461 531 36,000  Climbing FlightAware
07:57AM 53.2433 -2.3822 311° West 470 541 34,500 -2,400 Descending FlightAware UK
07:57AM 53.2683 -2.4307 311° West 468 539 34,500 4,500 Level FlightAware UK
07:57AM 53.2670 -2.4280 311° West 462 532 36,000  Climbing FlightAware
07:57AM 53.2929 -2.4790 311° West 468 539 34,500 -2,760 Descending FlightAware UK
07:58AM 53.3178 -2.5279 310° West 474 545 34,500 3,000 Level FlightAware UK
07:58AM 53.3300 -2.5520 310° West 460 529 36,000  Climbing FlightAware
07:58AM 53.3590 -2.6093 310° West 472 543 34,500 -2,520 Descending FlightAware UK
07:58AM 53.3833 -2.6572 310° West 472 543 34,500 4,080 Level FlightAware UK
07:58AM 53.3830 -2.6560 310° West 456 525 36,000  Climbing FlightAware
07:59AM 53.4159 -2.7216 310° West 470 541 34,500  Descending FlightAware UK
07:59AM 53.4390 -2.7670 310° West 454 522 36,000  Climbing FlightAware
07:59AM 53.4646 -2.8181 310° West 462 532 34,500 -2,700 Descending FlightAware UK
08:00AM 53.4889 -2.8666 310° West 464 534 34,500 3,720 Level FlightAware UK
08:00AM 53.4930 -2.8750 310° West 458 527 36,000  Climbing FlightAware
08:00AM 53.5216 -2.9319 310° West 468 539 34,500 -2,520 Descending FlightAware UK
08:00AM 53.5460 -2.9807 310° West 468 539 34,500 3,300 Level FlightAware UK
08:00AM 53.5550 -2.9980 310° West 462 532 36,000  Climbing FlightAware
08:01AM 53.5955 -3.0800 310° West 472 543 34,500  Descending FlightAware UK
08:01AM 53.5960 -3.0820 310° West 461 531 36,000  Climbing FlightAware
08:01AM 53.6365 -3.1623 310° West 470 541 34,500  Descending FlightAware UK
08:02AM 53.6510 -3.1910 310° West 458 527 36,000  Climbing FlightAware
08:02AM 53.6769 -3.2439 310° West 464 534 34,500  Descending FlightAware UK
08:02AM 53.6910 -3.2720 310° West 459 528 36,000  Climbing FlightAware
08:03AM 53.7418 -3.3759 310° West 466 536 34,500  Descending FlightAware UK
08:03AM 53.7590 -3.4120 310° West 461 531 36,000  Climbing FlightAware
08:03AM 53.7805 -3.4611 310° West 470 541 34,500 -2,760 Descending FlightAware UK
08:04AM 53.8003 -3.5141 302° West 468 539 34,500 2,520 Level FlightAware UK
08:04AM 53.8150 -3.5560 300° West 442 509 36,000  Climbing FlightAware
08:04AM 53.8187 -3.5678 300° West 466 536 34,500 -4,740 Descending FlightAware UK
08:04AM 53.8375 -3.6213 300° West 466 536 34,500 2,040 Level FlightAware UK
08:05AM 53.8630 -3.6950 300° West 444 511 36,000  Climbing FlightAware
08:05AM 53.8938 -3.7819 300° West 470 541 34,500  Descending FlightAware UK
08:05AM 53.9040 -3.8120 300° West 444 511 36,000  Climbing FlightAware
08:06AM 53.9312 -3.8897 300° West 472 543 34,500  Descending FlightAware UK
08:06AM 53.9470 -3.9340 300° West 446 513 36,000  Climbing FlightAware
08:06AM 53.9687 -3.9980 300° West 470 541 34,500  Descending FlightAware UK
08:07AM 53.9920 -4.0660 300° West 445 512 36,000  Climbing FlightAware
08:07AM 54.0123 -4.1248 300° West 466 536 34,500  Descending FlightAware UK
08:07AM 54.0330 -4.1860 300° West 448 516 36,000  Climbing FlightAware
08:08AM 54.0559 -4.2519 300° West 468 539 34,500  Descending FlightAware UK
08:08AM 54.0810 -4.3260 300° West 450 518 36,000  Climbing FlightAware
08:08AM 54.0996 -4.3805 300° West 474 545 34,500 -2,700 Descending FlightAware UK
08:09AM 54.1184 -4.4359 300° West 474 545 34,500 3,720 Level FlightAware UK
08:09AM 54.1230 -4.4510 300° West 448 516 36,000  Climbing FlightAware
08:09AM 54.1431 -4.5087 300° West 468 539 34,500 -2,220 Descending FlightAware UK
08:09AM 54.1676 -4.5816 300° West 468 539 34,500 3,180 Level FlightAware UK
08:09AM 54.1680 -4.5840 300° West 446 513 36,000  Climbing FlightAware
08:10AM 54.1921 -4.6543 300° West 470 541 34,500 -2,400 Descending FlightAware UK
08:10AM 54.2106 -4.7090 300° West 470 541 34,500 4,500 Level FlightAware UK
08:10AM 54.2090 -4.7060 300° West 446 513 36,000  Climbing FlightAware
08:10AM 54.2290 -4.7640 300° West 466 536 34,500 -2,700 Descending FlightAware UK
08:11AM 54.2473 -4.8190 300° West 468 539 34,500 3,720 Level FlightAware UK
08:11AM 54.2490 -4.8250 300° West 447 514 36,000  Climbing FlightAware
08:11AM 54.2718 -4.8926 300° West 470 541 34,500  Descending FlightAware UK
08:11AM 54.2860 -4.9360 300° West 448 516 36,000  Climbing FlightAware
08:12AM 54.3085 -5.0034 300° West 472 543 34,500  Descending FlightAware UK
08:12AM 54.3280 -5.0620 300° West 446 513 36,000  Climbing FlightAware
08:12AM 54.3449 -5.1133 300° West 472 543 34,500  Descending FlightAware UK
08:13AM 54.3570 -5.1500 300° West 445 512 36,000  Climbing FlightAware
08:13AM 54.3753 -5.2052 300° West 468 539 34,500 -2,760 Descending FlightAware UK
08:13AM 54.3934 -5.2604 299° West 466 536 34,500 3,600 Level FlightAware UK
08:13AM 54.3980 -5.2740 299° West 446 513 36,000  Climbing FlightAware
08:14AM 54.4295 -5.3712 299° West 470 541 34,500  Descending FlightAware UK
08:14AM 54.4380 -5.3990 299° West 449 517 36,000  Climbing FlightAware
08:14AM 54.4597 -5.4643 299° West 470 541 34,500 -2,460 Descending FlightAware UK
08:15AM 54.4779 -5.5203 299° West 476 548 34,500 3,420 Level FlightAware UK
08:15AM 54.4830 -5.5360 299° West 449 517 36,000  Climbing FlightAware
08:15AM 54.5022 -5.5950 299° West 474 545 34,500 -2,700 Descending FlightAware UK
08:15AM 54.5203 -5.6510 299° West 470 541 34,500 3,720 Level FlightAware UK
08:15AM 54.5230 -5.6600 299° West 447 514 36,000  Climbing FlightAware
08:16AM 54.5442 -5.7256 299° West 468 539 34,500 -2,520 Descending FlightAware UK
08:16AM 54.5622 -5.7814 299° West 470 541 34,500 4,080 Level FlightAware UK
08:16AM 54.5630 -5.7830 299° West 447 514 36,000  Climbing FlightAware
08:16AM 54.5861 -5.8561 299° West 466 536 34,500 -2,400 Descending FlightAware UK
08:17AM 54.6041 -5.9122 299° West 468 539 34,500 4,500 Level FlightAware UK
08:17AM 54.6030 -5.9100 299° West 449 517 36,000  Climbing FlightAware
08:17AM 54.6281 -5.9871 299° West 466 536 34,500 -2,280 Descending FlightAware UK
08:17AM 54.6460 -6.0437 299° West 468 539 34,500 3,900 Level FlightAware UK
08:17AM 54.6480 -6.0500 299° West 451 519 36,000  Climbing FlightAware
08:18AM 54.6698 -6.1196 299° West 470 541 34,500  Descending FlightAware UK
08:18AM 54.6830 -6.1610 299° West 454 522 36,000  Climbing FlightAware
08:18AM 54.7058 -6.2335 299° West 472 543 34,500 -2,400 Descending FlightAware UK
08:19AM 54.7237 -6.2910 298° West 472 543 34,500 4,500 Level FlightAware UK
08:19AM 54.7230 -6.2890 298° West 455 524 36,000  Climbing FlightAware
08:19AM 54.7418 -6.3484 298° West 472 543 34,500 -2,700 Descending FlightAware UK
08:19AM 54.7596 -6.4062 298° West 476 548 34,500 3,060 Level FlightAware UK
08:19AM 54.7690 -6.4360 298° West 455 524 36,000  Climbing FlightAware
08:20AM 54.7898 -6.5016 298° West 470 541 34,500 -2,460 Descending FlightAware UK
08:20AM 54.8076 -6.5593 298° West 472 543 34,500 4,260 Level FlightAware UK
08:20AM 54.8090 -6.5630 298° West 455 524 36,000  Climbing FlightAware
08:20AM 54.8255 -6.6170 298° West 476 548 34,500 -2,760 Descending FlightAware UK
08:21AM 54.8435 -6.6748 298° West 478 550 34,500 3,000 Level FlightAware UK
08:21AM 54.8520 -6.7030 298° West 456 525 36,000  Climbing FlightAware
08:21AM 54.8733 -6.7716 298° West 474 545 34,500 -2,520 Descending FlightAware UK
08:21AM 54.8911 -6.8295 298° West 476 548 34,500 4,080 Level FlightAware UK
08:21AM 54.8890 -6.8230 298° West 454 522 36,000  Climbing FlightAware
08:22AM 54.9147 -6.9067 298° West 476 548 34,500 -2,400 Descending FlightAware UK
08:22AM 54.9325 -6.9646 298° West 474 545 34,500 4,500 Level FlightAware UK
08:22AM 54.9330 -6.9650 298° West 454 522 36,000  Climbing FlightAware
08:22AM 54.9502 -7.0226 298° West 472 543 34,500 -2,700 Descending FlightAware UK
08:23AM 54.9677 -7.0807 298° West 476 548 34,500 3,720 Level FlightAware UK
08:23AM 54.9710 -7.0930 298° West 456 525 36,000  Climbing FlightAware
08:23AM 54.9913 -7.1582 298° West 474 545 34,500  Descending FlightAware UK
08:23AM 55.0000 -7.1860 298° West 455 524 36,000  Climbing FlightAware
08:24AM 55.0207 -7.2553 298° West 470 541 34,500  Descending FlightAware UK
08:24AM 55.0300 -7.2870 298° West 455 524 36,000  Climbing FlightAware
08:24AM 55.0499 -7.3526 298° West 464 534 34,500 -2,520 Descending FlightAware UK
08:24AM 55.0675 -7.4114 298° West 470 541 34,500 4,080 Level FlightAware UK
08:24AM 55.0670 -7.4090 298° West 460 529 36,000 -300 Climbing FlightAware
08:25AM 55.0913 -7.4910 298° West 470 541 34,400  Descending FlightAware UK
08:25AM 55.0940 -7.5000 297° West 463 533 36,000 300 Climbing FlightAware
08:25AM 55.1091 -7.5511 297° West 472 543 34,500 -4,740 Descending FlightAware UK
08:25AM 55.1152 -7.5712 297° West 472 543 34,500  Level FlightAware UK
08:26AM 55.1332 -7.6318 297° West 476 548 34,500  Level FlightAware UK
08:26AM 55.1512 -7.6925 298° West 476 548 34,500 4,980 Level FlightAware UK
08:26AM 55.1500 -7.6880 298° West 470 541 36,000  Climbing FlightAware
08:26AM 55.1694 -7.7534 298° West 478 550 34,500  Descending FlightAware UK
08:26AM 55.1790 -7.7860 297° West 470 541 36,000  Climbing FlightAware
08:26AM 55.1874 -7.8146 297° West 476 548 34,500 -5,040 Descending FlightAware UK
08:27AM 55.1993 -7.8555 297° West 480 552 34,500  Level FlightAware UK
08:27AM 55.2173 -7.9168 297° West 486 559 34,500 2,760 Level FlightAware UK
08:27AM 55.2290 -7.9550 297° West 464 534 36,000  Climbing FlightAware
08:27AM 55.2472 -8.0181 297° West 478 550 34,500 -2,700 Descending FlightAware UK
08:28AM 55.2643 -8.0773 297° West 478 550 34,500 4,680 Level FlightAware UK
08:28AM 55.2630 -8.0730 297° West 460 529 36,000  Climbing FlightAware
08:28AM 55.2816 -8.1368 297° West 474 545 34,500  Descending FlightAware UK
08:28AM 55.2960 -8.1870 297° West 458 527 36,000  Climbing FlightAware
08:29AM 55.3162 -8.2557 297° West 478 550 34,500  Descending FlightAware UK
08:29AM 55.3310 -8.3060 297° West 459 528 36,000  Climbing FlightAware
08:29AM 55.3334 -8.3155 297° West 480 552 34,500 -4,740 Descending FlightAware UK
08:29AM 55.3506 -8.3753 297° West 480 552 34,500  Level FlightAware UK
08:30AM 55.3677 -8.4352 297° West 482 555 34,500  Level FlightAware UK
08:30AM 55.3849 -8.4950 297° West 478 550 34,500 3,900 Level FlightAware UK
08:30AM 55.3870 -8.5040 297° West 455 524 36,000  Climbing FlightAware
08:30AM 55.4077 -8.5748 297° West 478 550 34,500  Descending FlightAware UK
08:30AM 55.4160 -8.6050 297° West 456 525 36,000  Climbing FlightAware
08:31AM 55.4248 -8.6347 297° West 476 548 34,500 -4,740 Descending FlightAware UK
08:31AM 55.4361 -8.6747 297° West 472 543 34,500  Level FlightAware UK
08:31AM 55.4530 -8.7343 297° West 478 550 34,500 3,420 Level FlightAware UK
08:31AM 55.4590 -8.7550 297° West 463 533 36,000  Climbing FlightAware
08:31AM 55.4759 -8.8151 297° West 480 552 34,500 -2,700 Descending FlightAware UK
08:32AM 55.4930 -8.8762 296° West 482 555 34,500 3,060 Level FlightAware UK
08:32AM 55.5030 -8.9100 296° West 459 528 36,000  Climbing FlightAware
08:32AM 55.5216 -8.9778 296° West 478 550 34,500  Descending FlightAware UK
08:32AM 55.5350 -9.0260 296° West 459 528 36,000 1,560 Climbing FlightAware
08:33AM 55.5720 -9.1600 296° West 460 529 36,000  Level FlightAware
08:34AM 55.6050 -9.2760 297° West 465 535 36,000  Level FlightAware
08:34AM 55.6400 -9.4050 296° West 466 536 36,000  Level FlightAware
08:35AM 55.6720 -9.5210 296° West 470 541 36,000  Level FlightAware
08:38AM 55.7133 -10.0427 278° West  Level Estimated
08:38AM 55.8570 -10.2080 278° West 463 533 36,000  Level FlightAware
08:39AM 55.8990 -10.3640 296° West 463 533 36,000  Level FlightAware
08:40AM 55.9360 -10.5080 295° West 463 533 36,000  Level FlightAware
08:40AM 55.9680 -10.6280 296° West 465 535 36,000  Level FlightAware
08:41AM 56.0190 -10.8260 295° West 470 541 36,000  Level FlightAware
08:42AM 56.0490 -10.9430 295° West 472 543 36,000  Level FlightAware
08:42AM 56.0840 -11.0780 295° West 475 547 36,000  Level FlightAware
08:43AM 56.1050 -11.1590 295° West 475 547 36,000  Level FlightAware
08:43AM 56.1430 -11.3090 295° West 476 548 36,000  Level FlightAware
08:44AM 56.1700 -11.4160 294° West 474 545 36,000  Level FlightAware
08:45AM 56.2050 -11.5580 294° West 475 547 36,000  Level FlightAware
08:45AM 56.2310 -11.6630 294° West 477 549 36,000  Level FlightAware
08:46AM 56.2720 -11.8280 294° West 479 551 36,000  Level FlightAware
08:46AM 56.3010 -11.9460 294° West 480 552 36,000  Level FlightAware
08:47AM 56.3370 -12.0980 293° West 479 551 36,000  Level FlightAware
08:48AM 56.3590 -12.1920 293° West 479 551 36,000  Level FlightAware
08:48AM 56.3890 -12.3170 293° West 479 551 36,000  Level FlightAware
08:49AM 56.4180 -12.4420 293° West 479 551 36,000  Level FlightAware
08:50AM 56.4400 -12.5360 293° West 479 551 36,000  Level FlightAware
08:50AM 56.4770 -12.6930 293° West 479 551 36,000  Level FlightAware
08:51AM 56.5140 -12.8500 293° West 479 551 36,000  Level FlightAware
08:52AM 56.5360 -12.9450 293° West 479 551 36,000  Level FlightAware
08:53AM 56.5730 -13.1020 293° West 479 551 36,000  Level FlightAware
08:53AM 56.5950 -13.1970 293° West 479 551 36,000  Level FlightAware
08:54AM 56.6320 -13.3540 293° West 479 551 36,000  Level FlightAware
08:55AM 56.6610 -13.4800 293° West 479 551 36,000  Level FlightAware
08:55AM 56.6900 -13.6070 293° West 479 551 36,000  Level FlightAware
08:56AM 56.7270 -13.7650 293° West 479 551 36,000  Level FlightAware
08:59AM 56.7446 -14.2708 274° West  Level Estimated
09:00AM 56.7512 -14.4774 273° West  Level Estimated
09:01AM 56.7575 -14.6841 273° West  Level Estimated
09:02AM 56.7637 -14.9022 273° West  Level Estimated
09:03AM 56.7697 -15.1274 273° West  Level Estimated
09:04AM 56.7754 -15.3525 273° West  Level Estimated
09:05AM 56.7806 -15.5778 273° West  Level Estimated
09:06AM 56.7854 -15.8031 272° West  Level Estimated
09:07AM 56.7898 -16.0285 272° West  Level Estimated
09:08AM 56.7938 -16.2539 272° West  Level Estimated
09:09AM 56.7974 -16.4794 272° West  Level Estimated
09:10AM 56.8006 -16.7049 272° West  Level Estimated
09:11AM 56.8034 -16.9305 271° West  Level Estimated
09:12AM 56.8057 -17.1560 271° West  Level Estimated
09:13AM 56.8077 -17.3816 271° West  Level Estimated
09:14AM 56.8093 -17.6073 271° West  Level Estimated
09:15AM 56.8104 -17.8329 271° West  Level Estimated
09:16AM 56.8112 -18.0585 270° West  Level Estimated
09:17AM 56.8115 -18.2842 270° West  Level Estimated
09:18AM 56.8114 -18.5099 270° West  Level Estimated
09:19AM 56.8110 -18.7355 270° West  Level Estimated
09:20AM 56.8101 -18.9612 270° West  Level Estimated
09:21AM 56.8088 -19.1868 269° West  Level Estimated
09:22AM 56.8071 -19.4124 269° West  Level Estimated
09:23AM 56.8050 -19.6380 269° West  Level Estimated
09:23AM 58.0000 -20.0000 285° West 478 550 36,000  Level ETMS Enhanced Traffic Management System
09:24AM 56.8025 -19.8636 269° West  Level Estimated
09:25AM 56.7995 -20.0935 269° West  Level Estimated
09:26AM 56.7961 -20.3233 269° West  Level Estimated
09:27AM 56.7923 -20.5532 268° West  Level Estimated
09:28AM 56.7880 -20.7829 268° West  Level Estimated
09:29AM 58.2305 -21.7058 284° West 478 550 36,000  Level FlightAware Transoceanic
09:30AM 58.2616 -21.9513 283° West 478 550 36,000  Level FlightAware Transoceanic
09:31AM 58.2922 -22.1972 283° West 478 550 36,000  Level FlightAware Transoceanic
09:32AM 58.3223 -22.4435 283° West 478 550 36,000  Level FlightAware Transoceanic
09:33AM 58.3520 -22.6902 283° West 478 550 36,000  Level FlightAware Transoceanic
09:34AM 58.3811 -22.9374 283° West 478 550 36,000  Level FlightAware Transoceanic
09:35AM 58.4098 -23.1849 282° West 478 550 36,000  Level FlightAware Transoceanic
09:36AM 58.4380 -23.4329 282° West 478 550 36,000  Level FlightAware Transoceanic
09:37AM 58.4658 -23.6812 282° West 478 550 36,000  Level FlightAware Transoceanic
09:38AM 58.4930 -23.9299 282° West 478 550 36,000  Level FlightAware Transoceanic
09:39AM 58.5198 -24.1790 282° West 478 550 36,000  Level FlightAware Transoceanic
09:40AM 58.5461 -24.4285 281° West 478 550 36,000  Level FlightAware Transoceanic
09:41AM 58.5719 -24.6784 281° West 478 550 36,000  Level FlightAware Transoceanic
09:42AM 58.5972 -24.9286 281° West 478 550 36,000  Level FlightAware Transoceanic
09:43AM 58.6221 -25.1792 281° West 478 550 36,000  Level FlightAware Transoceanic
09:44AM 58.6464 -25.4301 280° West 478 550 36,000  Level FlightAware Transoceanic
09:45AM 58.6702 -25.6814 280° West 478 550 36,000  Level FlightAware Transoceanic
09:46AM 58.6936 -25.9330 280° West 478 550 36,000  Level FlightAware Transoceanic
09:47AM 58.7165 -26.1850 280° West 478 550 36,000  Level FlightAware Transoceanic
09:48AM 58.7389 -26.4373 280° West 478 550 36,000  Level FlightAware Transoceanic
09:49AM 58.7608 -26.6899 279° West 478 550 36,000  Level FlightAware Transoceanic
09:50AM 58.7822 -26.9428 279° West 478 550 36,000  Level FlightAware Transoceanic
09:51AM 58.8031 -27.1961 279° West 478 550 36,000  Level FlightAware Transoceanic
09:52AM 58.8235 -27.4496 279° West 478 550 36,000  Level FlightAware Transoceanic
09:53AM 58.8434 -27.7034 279° West 478 550 36,000  Level FlightAware Transoceanic
09:54AM 58.8628 -27.9575 278° West 478 550 36,000  Level FlightAware Transoceanic
09:55AM 58.8817 -28.2119 278° West 478 550 36,000  Level FlightAware Transoceanic
09:56AM 58.9001 -28.4666 278° West 478 550 36,000  Level FlightAware Transoceanic
09:57AM 58.9180 -28.7215 278° West 478 550 36,000  Level FlightAware Transoceanic
09:58AM 58.9354 -28.9767 277° West 478 550 36,000  Level FlightAware Transoceanic
09:59AM 58.9523 -29.2322 277° West 478 550 36,000  Level FlightAware Transoceanic
10:00AM 58.9687 -29.4879 277° West 478 550 36,000  Level FlightAware Transoceanic
10:01AM 58.9846 -29.7438 277° West 478 550 36,000  Level FlightAware Transoceanic
10:02AM 58.9992 -29.9866 277° West  Level FlightAware Approximate
10:03AM 59.0133 -30.2296 277° West  Level FlightAware Approximate
10:04AM 59.0078 -30.2170 274° West  Level FlightAware Approximate
10:05AM 59.0162 -30.4610 274° West  Level FlightAware Approximate
10:06AM 59.0241 -30.7051 274° West  Level FlightAware Approximate
10:07AM 59.0311 -30.9361 273° West  Level FlightAware Approximate
10:08AM 59.0378 -31.1671 273° West  Level FlightAware Approximate
10:09AM 59.0440 -31.3983 273° West  Level FlightAware Approximate
10:10AM 59.0498 -31.6295 273° West  Level FlightAware Approximate
10:11AM 59.0552 -31.8608 273° West  Level FlightAware Approximate
10:12AM 59.0602 -32.0922 273° West  Level FlightAware Approximate
10:13AM 59.0648 -32.3237 272° West  Level FlightAware Approximate
10:14AM 59.0690 -32.5551 272° West  Level FlightAware Approximate
10:15AM 59.0727 -32.7867 272° West  Level FlightAware Approximate
10:16AM 59.0761 -33.0183 272° West  Level FlightAware Approximate
10:17AM 59.0790 -33.2499 272° West  Level FlightAware Approximate
10:18AM 59.0815 -33.4816 271° West  Level FlightAware Approximate
10:19AM 59.0836 -33.7133 271° West  Level FlightAware Approximate
10:20AM 59.0853 -33.9451 271° West  Level FlightAware Approximate
10:21AM 59.0866 -34.1768 271° West  Level FlightAware Approximate
10:22AM 59.0875 -34.4086 271° West  Level FlightAware Approximate
10:23AM 59.0879 -34.6404 270° West  Level FlightAware Approximate
10:24AM 59.0880 -34.8722 270° West  Level FlightAware Approximate
10:25AM 59.0876 -35.1039 270° West  Level FlightAware Approximate
10:26AM 59.0868 -35.3357 270° West  Level FlightAware Approximate
10:27AM 59.0856 -35.5675 270° West  Level FlightAware Approximate
10:28AM 59.0840 -35.7992 269° West  Level FlightAware Approximate
10:29AM 59.0820 -36.0309 269° West  Level FlightAware Approximate
10:30AM 59.0795 -36.2626 269° West  Level FlightAware Approximate
10:31AM 59.0767 -36.4943 269° West  Level FlightAware Approximate
10:32AM 59.0734 -36.7259 269° West  Level FlightAware Approximate
10:33AM 59.0697 -36.9574 268° West  Level FlightAware Approximate
10:34AM 59.0660 -37.1890 269° West  Level FlightAware Approximate
10:35AM 59.0629 -37.4206 269° West  Level FlightAware Approximate
10:36AM 59.0593 -37.6521 268° West  Level FlightAware Approximate
10:37AM 59.0554 -37.8835 268° West  Level FlightAware Approximate
10:38AM 59.0510 -38.1149 268° West  Level FlightAware Approximate
10:39AM 59.0462 -38.3462 268° West  Level FlightAware Approximate
10:40AM 59.0410 -38.5775 268° West  Level FlightAware Approximate
10:41AM 59.0354 -38.8087 267° West  Level FlightAware Approximate
10:42AM 59.0294 -39.0398 267° West  Level FlightAware Approximate
10:43AM 59.0230 -39.2708 267° West  Level FlightAware Approximate
10:44AM 59.0162 -39.5018 267° West  Level FlightAware Approximate
10:45AM 59.0089 -39.7326 267° West  Level FlightAware Approximate
10:46AM 59.0013 -39.9634 266° West  Level FlightAware Approximate
10:47AM 58.9710 -40.1861 253° West  Level FlightAware Approximate
10:48AM 58.9363 -40.4069 253° West  Level FlightAware Approximate
10:49AM 58.9011 -40.6273 253° West  Level FlightAware Approximate
10:50AM 58.8656 -40.8472 253° West  Level FlightAware Approximate
10:51AM 58.8297 -41.0667 253° West  Level FlightAware Approximate
10:52AM 58.7934 -41.2857 252° West  Level FlightAware Approximate
10:53AM 58.7568 -41.5042 252° West  Level FlightAware Approximate
10:54AM 58.7198 -41.7223 252° West  Level FlightAware Approximate
10:55AM 58.6824 -41.9399 252° West  Level FlightAware Approximate
10:56AM 58.6447 -42.1571 252° West  Level FlightAware Approximate
10:57AM 58.6066 -42.3738 251° West  Level FlightAware Approximate
10:58AM 58.5681 -42.5900 251° West  Level FlightAware Approximate
10:59AM 58.5293 -42.8057 251° West  Level FlightAware Approximate
11:00AM 58.4903 -43.0211 251° West  Level FlightAware Approximate
11:01AM 58.4518 -43.2366 251° West  Level FlightAware Approximate
11:02AM 58.4129 -43.4516 251° West  Level FlightAware Approximate
11:03AM 58.3737 -43.6661 251° West  Level FlightAware Approximate
11:04AM 58.3340 -43.8801 251° West  Level FlightAware Approximate
11:05AM 58.2941 -44.0936 250° West  Level FlightAware Approximate
11:06AM 58.2538 -44.3067 250° West  Level FlightAware Approximate
11:07AM 58.2131 -44.5193 250° West  Level FlightAware Approximate
11:08AM 58.1721 -44.7313 250° West  Level FlightAware Approximate
11:09AM 58.1307 -44.9429 250° West  Level FlightAware Approximate
11:10AM 58.0890 -45.1540 250° West  Level FlightAware Approximate
11:11AM 58.0469 -45.3646 249° West  Level FlightAware Approximate
11:12AM 58.0045 -45.5747 249° West  Level FlightAware Approximate
11:13AM 57.9617 -45.7844 249° West  Level FlightAware Approximate
11:14AM 57.9186 -45.9935 249° West  Level FlightAware Approximate
11:15AM 57.8751 -46.2021 249° West  Level FlightAware Approximate
11:16AM 57.8313 -46.4102 249° West  Level FlightAware Approximate
11:17AM 57.7872 -46.6177 248° West  Level FlightAware Approximate
11:18AM 57.7427 -46.8248 248° West  Level FlightAware Approximate
11:19AM 57.6979 -47.0314 248° West  Level FlightAware Approximate
11:20AM 57.6528 -47.2375 248° West  Level FlightAware Approximate
11:21AM 57.6071 -47.4429 248° West  Level FlightAware Approximate
11:22AM 57.5611 -47.6477 247° West  Level FlightAware Approximate
11:23AM 57.5147 -47.8521 247° West  Level FlightAware Approximate
11:24AM 57.4681 -48.0559 247° West  Level FlightAware Approximate
11:25AM 57.4211 -48.2592 247° West  Level FlightAware Approximate
11:26AM 57.3737 -48.4620 247° West  Level FlightAware Approximate
11:27AM 57.3261 -48.6643 246° West  Level FlightAware Approximate
11:28AM 57.2781 -48.8660 246° West  Level FlightAware Approximate
11:29AM 57.2271 -49.0783 246° West  Level FlightAware Approximate
11:30AM 57.1758 -49.2901 246° West  Level FlightAware Approximate
11:31AM 57.1241 -49.5012 246° West  Level FlightAware Approximate
11:32AM 57.0720 -49.7118 246° West  Level FlightAware Approximate
11:33AM 57.0196 -49.9218 245° Southwest  Level FlightAware Approximate
11:34AM 56.9705 -50.1340 248° West  Level FlightAware Approximate
11:35AM 56.9231 -50.3474 248° West  Level FlightAware Approximate
11:36AM 56.8754 -50.5602 248° West  Level FlightAware Approximate
11:37AM 56.8273 -50.7725 248° West  Level FlightAware Approximate
11:38AM 56.7788 -50.9843 247° West  Level FlightAware Approximate
11:39AM 56.7300 -51.1955 247° West  Level FlightAware Approximate
11:40AM 56.6808 -51.4062 247° West  Level FlightAware Approximate
11:41AM 56.6313 -51.6163 247° West  Level FlightAware Approximate
11:42AM 56.5814 -51.8258 247° West  Level FlightAware Approximate
11:43AM 56.5312 -52.0348 247° West  Level FlightAware Approximate
11:44AM 56.4806 -52.2433 246° West  Level FlightAware Approximate
11:45AM 56.4296 -52.4512 246° West  Level FlightAware Approximate
11:46AM 56.3783 -52.6585 246° West  Level FlightAware Approximate
11:47AM 56.3267 -52.8653 246° West  Level FlightAware Approximate
11:48AM 56.2747 -53.0715 246° West  Level FlightAware Approximate
11:49AM 56.2224 -53.2771 245° Southwest  Level FlightAware Approximate
11:50AM 56.1698 -53.4822 245° Southwest  Level FlightAware Approximate
11:51AM 56.1168 -53.6867 245° Southwest  Level FlightAware Approximate
11:52AM 56.0635 -53.8907 245° Southwest  Level FlightAware Approximate
11:53AM 56.0098 -54.0941 245° Southwest  Level FlightAware Approximate
11:54AM 55.9300 -54.2617 230° Southwest  Level Estimated
11:54AM 55.8000 -55.8167 229° Southwest 470 541 38,000  Level Gander Center
11:55AM 55.8499 -54.4286 230° Southwest  Level Estimated
11:55AM 55.7500 -56.0333 248° West 470 541 38,000  Level Gander Center
11:56AM 55.7696 -54.5948 229° Southwest  Level Estimated
11:56AM 55.7000 -56.2333 246° West 460 529 38,000  Level Gander Center
11:57AM 55.6891 -54.7603 229° Southwest  Level Estimated
11:57AM 55.6500 -56.4500 248° West 470 541 38,000  Level Gander Center
11:58AM 55.6084 -54.9252 229° Southwest  Level Estimated
11:58AM 55.5833 -56.6667 242° Southwest 470 541 38,000  Level Gander Center
11:59AM 55.5274 -55.0894 229° Southwest  Level Estimated
11:59AM 55.5333 -56.8833 248° West 470 541 38,000  Level Gander Center
12:00PM 55.4667 -57.0667 237° Southwest 470 541 38,000  Level Gander Center
12:01PM 55.3833 -57.2500 231° Southwest 480 552 38,000  Level Gander Center
12:02PM 55.3167 -57.4667 242° Southwest 480 552 38,000  Level Gander Center
12:03PM 55.2333 -57.6167 226° Southwest 480 552 38,000  Level Gander Center
12:04PM 55.1500 -57.8000 232° Southwest 470 541 38,000  Level Gander Center
12:05PM 55.0667 -57.9833 232° Southwest 470 541 38,000  Level Gander Center
12:06PM 55.0000 -58.1667 238° Southwest 470 541 38,000  Level Gander Center
12:07PM 54.9000 -58.3500 227° Southwest 460 529 38,000  Level Gander Center
12:08PM 54.8167 -58.5333 232° Southwest 470 541 38,000  Level Gander Center
12:08PM 54.7667 -58.6667 237° Southwest 470 541 38,000  Level Moncton Center
12:09PM 54.6833 -58.8167 226° Southwest 470 541 38,000  Level Moncton Center
12:10PM 54.6667 -58.8833 247° West 470 541 38,000  Level Gander Center
12:11PM 54.5833 -59.0667 232° Southwest 470 541 38,000  Level Gander Center
12:11PM 54.5167 -59.1500 216° Southwest 470 541 38,000  Level Moncton Center
12:12PM 54.4333 -59.3333 232° Southwest 470 541 38,000  Level Moncton Center
12:13PM 54.4167 -59.3833 240° Southwest 470 541 38,000  Level Gander Center
12:14PM 54.3167 -59.5667 227° Southwest 470 541 38,000  Level Gander Center
12:15PM 54.2333 -59.7333 229° Southwest 470 541 38,000  Level Gander Center
12:16PM 54.1500 -59.9167 232° Southwest 470 541 38,000  Level Gander Center
12:16PM 54.1167 -59.9667 221° Southwest 470 541 38,000  Level Gander Center
12:17PM 54.0833 -60.0500 236° Southwest 460 529 38,000  Level Gander Center
12:18PM 54.0000 -60.2333 232° Southwest 460 529 38,000  Level Gander Center
12:19PM 53.9167 -60.4000 230° Southwest 460 529 38,000  Level Gander Center
12:20PM 53.8167 -60.5667 225° Southwest 470 541 38,000  Level Gander Center
12:21PM 53.7333 -60.7500 233° Southwest 470 541 38,000  Level Gander Center
12:22PM 53.6500 -60.8833 224° Southwest 470 541 38,000  Level Gander Center
12:23PM 53.5667 -61.0500 230° Southwest 470 541 38,000  Level Gander Center
12:24PM 53.4667 -61.2333 228° Southwest 470 541 38,000  Level Gander Center
12:25PM 53.3833 -61.4000 230° Southwest 460 529 38,000  Level Gander Center
12:26PM 53.3000 -61.5333 224° Southwest 470 541 38,000  Level Gander Center
12:27PM 53.2167 -61.7000 230° Southwest 470 541 38,000  Level Gander Center
12:28PM 53.1333 -61.8667 230° Southwest 470 541 38,000  Level Gander Center
12:29PM 53.0333 -62.0333 225° Southwest 470 541 38,000  Level Gander Center
12:30PM 52.9333 -62.1667 219° Southwest 470 541 38,000  Level Gander Center
12:31PM 52.8500 -62.3667 235° Southwest 470 541 38,000  Level Gander Center
12:32PM 52.7667 -62.5000 224° Southwest 470 541 38,000  Level Gander Center
12:33PM 52.6667 -62.6667 225° Southwest 460 529 38,000  Level Gander Center
12:34PM 52.5833 -62.8167 228° Southwest 470 541 38,000  Level Gander Center
12:35PM 52.5000 -62.9500 224° Southwest 470 541 38,000  Level Gander Center
12:36PM 52.4167 -63.1167 231° Southwest 460 529 38,000  Level Gander Center
12:36PM 52.3500 -63.2167 223° Southwest 470 541 38,000  Level Moncton Center
12:37PM 52.2667 -63.3833 231° Southwest 460 529 38,000  Level Moncton Center
12:38PM 52.1667 -63.5167 219° Southwest 460 529 38,000  Level Moncton Center
12:39PM 52.0833 -63.6833 231° Southwest 470 541 38,000  Level Moncton Center
12:40PM 52.0500 -63.7333 223° Southwest 470 541 38,000  Level Gander Center
12:41PM 51.9667 -63.8833 228° Southwest 460 529 38,000  Level Gander Center
12:42PM 51.8833 -64.0500 231° Southwest 470 541 38,000  Level Gander Center
12:42PM 51.8167 -64.1500 223° Southwest 470 541 38,000  Level Moncton Center
12:43PM 51.7167 -64.2833 220° Southwest 470 541 38,000  Level Moncton Center
12:44PM 51.6333 -64.4500 231° Southwest 470 541 38,000  Level Moncton Center
12:45PM 51.5333 -64.5833 220° Southwest 470 541 38,000  Level Moncton Center
12:46PM 51.5167 -64.6333 242° Southwest 470 541 38,000  Level Gander Center
12:46PM 51.4500 -64.7167 218° Southwest 470 541 38,000  Level Moncton Center
12:47PM 51.3500 -64.8833 226° Southwest 460 529 38,000  Level Moncton Center
12:48PM 51.2667 -65.0167 225° Southwest 460 529 38,000  Level Moncton Center
12:49PM 51.1833 -65.1667 228° Southwest 460 529 38,000  Level Moncton Center
12:50PM 51.0833 -65.3000 220° Southwest 460 529 38,000  Level Moncton Center
12:51PM 51.0500 -65.3500 223° Southwest 460 529 38,000  Level Gander Center
12:51PM 51.0000 -65.4667 236° Southwest 460 529 38,000  Level Moncton Center
12:52PM 50.8833 -65.6167 219° Southwest 460 529 38,000  Level Moncton Center
12:53PM 50.8000 -65.7500 225° Southwest 460 529 38,000  Level Moncton Center
12:54PM 50.7167 -65.9000 229° Southwest 460 529 38,000  Level Moncton Center
12:55PM 50.6167 -66.0333 220° Southwest 460 529 38,000  Level Moncton Center
12:56PM 50.5333 -66.1833 229° Southwest 460 529 38,000  Level Moncton Center
12:57PM 50.4333 -66.3167 220° Southwest 460 529 38,000  Level Moncton Center
12:58PM 50.3500 -66.4667 229° Southwest 470 541 38,000  Level Moncton Center
12:59PM 50.2500 -66.5667 213° Southwest 470 541 38,000  Level Moncton Center
01:00PM 50.2167 -66.6333 232° Southwest 470 541 38,000  Level Gander Center
01:00PM 50.1500 -66.7167 219° Southwest 460 529 38,000  Level Moncton Center
01:01PM 50.0667 -66.8333 222° Southwest 480 552 38,000  Level Montreal Center
01:02PM 49.9667 -66.9833 224° Southwest 470 541 38,000  Level Montreal Center
01:03PM 49.8833 -67.1333 229° Southwest 470 541 38,000  Level Montreal Center
01:04PM 49.7667 -67.2500 213° Southwest 470 541 38,000  Level Montreal Center
01:05PM 49.6833 -67.4000 229° Southwest 480 552 38,000  Level Montreal Center
01:06PM 49.5833 -67.5500 224° Southwest 480 552 38,000  Level Montreal Center
01:07PM 49.4833 -67.6667 217° Southwest 480 552 38,000  Level Montreal Center
01:08PM 49.4000 -67.8167 230° Southwest 480 552 38,000  Level Montreal Center
01:09PM 49.3000 -67.9667 224° Southwest 470 541 38,000  Level Montreal Center
01:10PM 49.2000 -68.0833 217° Southwest 470 541 38,000  Level Montreal Center
01:11PM 49.1000 -68.2333 225° Southwest 470 541 38,000  Level Montreal Center
01:12PM 48.9667 -68.3500 210° Southwest 470 541 38,000  Level Montreal Center
01:13PM 48.8833 -68.4500 218° Southwest 470 541 38,000  Level Montreal Center
01:14PM 48.7500 -68.5667 210° Southwest 470 541 38,000  Level Montreal Center
01:15PM 48.6500 -68.6500 209° Southwest 470 541 38,000  Level Montreal Center
01:21PM 48.0180 -69.3380 209° Southwest 476 548 38,000  Level FlightAware
01:22PM 47.8833 -69.4333 209° Southwest 470 541 38,000  Level Montreal Center
01:23PM 47.7833 -69.5333 214° Southwest 470 541 38,000  Level Montreal Center
01:24PM 47.6667 -69.6500 214° Southwest 470 541 38,000  Level Montreal Center
01:25PM 47.5667 -69.7333 209° Southwest 470 541 38,000  Level Montreal Center
01:26PM 47.4500 -69.8500 214° Southwest 460 529 38,000  Level Montreal Center
01:27PM 47.3333 -69.9667 214° Southwest 460 529 38,000  Level Montreal Center
01:28PM 47.2500 -70.0833 224° Southwest 460 529 38,000  Level Montreal Center
01:29PM 47.1333 -70.1667 206° Southwest 460 529 38,000  Level Montreal Center
01:30PM 47.0167 -70.2833 214° Southwest 470 541 38,000  Level Montreal Center
01:31PM 46.9000 -70.3833 210° Southwest 470 541 38,000  Level Montreal Center
01:32PM 46.8000 -70.5000 219° Southwest 470 541 38,000  Level Montreal Center
01:33PM 46.7000 -70.5833 210° Southwest 470 541 38,000  Level Montreal Center
01:34PM 46.5833 -70.7000 215° Southwest 460 529 38,000  Level Montreal Center
01:35PM 46.4667 -70.8000 211° Southwest 460 529 38,000  Level Montreal Center
01:36PM 46.3667 -70.9167 219° Southwest 460 529 38,000  Level Montreal Center
01:37PM 46.2667 -71.0000 210° Southwest 460 529 38,000  Level Montreal Center
01:38PM 46.1500 -71.1000 211° Southwest 460 529 38,000  Level Montreal Center
01:39PM 46.0333 -71.2000 211° Southwest 460 529 38,000  Level Montreal Center
01:40PM 45.9333 -71.3167 219° Southwest 460 529 38,000  Level Montreal Center
01:41PM 45.8333 -71.4000 210° Southwest 460 529 38,000  Level Montreal Center
01:42PM 45.7167 -71.5000 211° Southwest 460 529 38,000  Level Montreal Center
01:43PM 45.6000 -71.6000 211° Southwest 460 529 38,000  Level Montreal Center
01:44PM 45.5000 -71.6833 210° Southwest 460 529 38,000  Level Montreal Center
01:45PM 45.4000 -71.8000 219° Southwest 460 529 38,000  Level Montreal Center
01:51PM 44.8260 -72.3210 219° Southwest 451 519 38,000  Level FlightAware
01:51PM 44.7560 -72.3820 212° Southwest 450 518 38,000  Level FlightAware
01:52PM 44.7040 -72.4330 215° Southwest 448 516 38,000  Level FlightAware
01:53PM 44.6440 -72.4960 217° Southwest 451 519 38,000  Level FlightAware
01:53PM 44.5880 -72.5540 216° Southwest 451 519 38,000  Level FlightAware
01:54PM 44.5370 -72.6060 216° Southwest 452 520 38,000  Level FlightAware
01:54PM 44.4870 -72.6580 217° Southwest 452 520 38,000  Level FlightAware
01:55PM 44.4190 -72.7280 216° Southwest 453 521 38,000  Level FlightAware
01:56PM 44.3420 -72.8060 216° Southwest 454 522 38,000  Level FlightAware
01:56PM 44.2850 -72.8650 217° Southwest 453 521 38,000  Level FlightAware
01:57PM 44.2080 -72.9430 216° Southwest 448 516 38,000  Level FlightAware
01:57PM 44.1570 -72.9950 216° Southwest 448 516 38,000  Level FlightAware
01:58PM 44.1000 -73.0530 216° Southwest 447 514 38,000  Level FlightAware
01:58PM 44.0500 -73.1030 216° Southwest 448 516 38,000  Level FlightAware
01:59PM 43.9720 -73.1820 216° Southwest 448 516 38,000  Level FlightAware
02:00PM 43.9170 -73.2380 216° Southwest 447 514 38,000 -420 Level FlightAware
02:00PM 43.8480 -73.3060 215° Southwest 448 516 37,500 -900 Descending FlightAware
02:01PM 43.7890 -73.3660 216° Southwest 450 518 36,900 -840 Descending FlightAware
02:02PM 43.7340 -73.4210 216° Southwest 449 517 36,400 -840 Descending FlightAware
02:02PM 43.6780 -73.4760 215° Southwest 442 509 35,800 -1,020 Descending FlightAware
02:03PM 43.6370 -73.5170 216° Southwest 434 499 35,400 -1,140 Descending FlightAware
02:03PM 43.5510 -73.6020 216° Southwest 436 502 34,600 -1,140 Descending FlightAware
02:04PM 43.5060 -73.6400 211° Southwest 449 517 34,100 -1,080 Descending FlightAware
02:05PM 43.4200 -73.6920 204° Southwest 463 533 33,400 -660 Descending FlightAware
02:06PM 43.3000 -73.7320 194° South 474 545 33,000 -660 Descending FlightAware
02:06PM 43.2110 -73.7360 182° South 490 564 32,300 -600 Descending FlightAware
02:07PM 43.1540 -73.7430 185° South 490 564 32,300  Level FlightAware
02:07PM 43.1150 -73.7470 184° South 490 564 32,300  Level FlightAware
02:08PM 43.0390 -73.7570 185° South 490 564 32,300  Level FlightAware
02:09PM 42.9620 -73.7660 185° South 490 564 32,300  Level FlightAware
02:09PM 42.9040 -73.7730 185° South 490 564 32,300  Level FlightAware
02:10PM 42.8270 -73.7820 185° South 490 564 32,300  Level FlightAware
02:11PM 42.7310 -73.7930 185° South 490 564 32,300  Level FlightAware
02:11PM 42.6350 -73.8050 185° South 490 564 32,300  Level FlightAware
02:12PM 42.5590 -73.8140 185° South 490 564 32,300  Level FlightAware
02:13PM 42.4820 -73.8230 185° South 490 564 32,300  Level FlightAware
02:13PM 42.4240 -73.8300 185° South 490 564 32,300  Level FlightAware
02:14PM 42.3470 -73.8390 185° South 490 564 32,300  Level FlightAware
02:15PM 42.2710 -73.8480 185° South 490 564 32,300  Level FlightAware
02:15PM 42.1940 -73.8570 185° South 490 564 32,300 -2,160 Level FlightAware
02:20PM 42.0350 -75.0340 260° West 360 414 20,800 -2,280 Descending FlightAware
02:21PM 41.9430 -75.1490 223° Southwest 369 425 19,000 -960 Descending FlightAware
02:22PM 41.8880 -75.1940 211° Southwest 369 425 19,000 -900 Level FlightAware
02:23PM 41.8210 -75.2490 211° Southwest 385 443 17,800 -1,080 Descending FlightAware
02:23PM 41.7570 -75.3000 211° Southwest 386 444 17,400 -360 Descending FlightAware
02:24PM 41.7180 -75.3320 211° Southwest 386 444 17,400  Level FlightAware
02:24PM 41.6660 -75.3740 211° Southwest 386 444 17,400  Level FlightAware
02:25PM 41.6270 -75.4050 211° Southwest 386 444 17,400  Level FlightAware
02:26PM 41.5750 -75.4470 211° Southwest 386 444 17,400  Level FlightAware
02:26PM 41.5360 -75.4780 211° Southwest 386 444 17,400 -1,320 Level FlightAware
02:30PM 41.1910 -75.6890 205° Southwest 396 456 11,900 -1,320 Descending FlightAware
02:30PM 41.1270 -75.6880 179° South 392 451 11,900  Level FlightAware
02:31PM 41.0530 -75.6870 179° South 392 451 11,900  Level FlightAware
02:32PM 40.9910 -75.6850 179° South 392 451 11,900  Level FlightAware
02:32PM 40.9534 -75.6870 182° South 11,900  Level FlightAware ADS-B
02:32PM 40.9297 -75.6868 180° South 392 451 11,900  Level FlightAware ADS-B
02:33PM 40.8656 -75.6863 180° South 394 453 11,900  Level FlightAware ADS-B
02:33PM 40.8034 -75.6859 180° South 398 458 11,900  Level FlightAware ADS-B
02:34PM 40.7484 -75.6855 180° South 406 467 11,900 -300 Level FlightAware ADS-B
02:34PM 40.7167 -75.6789 171° South 422 486 11,700 -720 Descending FlightAware ADS-B
02:34PM 40.7020 -75.6695 154° Southeast 425 489 11,600 -1,080 Descending FlightAware ADS-B
02:34PM 40.6873 -75.6555 144° Southeast 423 487 11,400 -1,020 Descending FlightAware ADS-B
02:35PM 40.6539 -75.6210 142° Southeast 407 468 11,100 -780 Descending FlightAware ADS-B
02:35PM 40.6016 -75.5717 144° Southeast 381 438 10,700 -660 Descending FlightAware ADS-B
02:36PM 40.5582 -75.5314 145° Southeast 359 413 10,400 -540 Descending FlightAware ADS-B
02:36PM 40.5179 -75.4942 145° Southeast 339 390 10,200 -420 Descending FlightAware ADS-B
02:37PM 40.4804 -75.4595 145° Southeast 321 369 10,000 -420 Descending FlightAware ADS-B
02:37PM 40.4595 -75.4406 145° Southeast 318 366 9,900 -240 Descending FlightAware ADS-B
02:37PM 40.4491 -75.4326 150° Southeast 316 364 9,900  Level FlightAware ADS-B
02:38PM 40.4353 -75.4241 155° Southeast 323 372 9,900 -240 Level FlightAware ADS-B
02:38PM 40.4141 -75.4118 156° South 331 381 9,800 -180 Descending FlightAware ADS-B
02:38PM 40.3893 -75.3971 156° South 322 371 9,800 -420 Level FlightAware ADS-B
02:38PM 40.3685 -75.3848 156° South 320 368 9,600 -1,200 Descending FlightAware ADS-B
02:39PM 40.3479 -75.3728 156° South 322 371 9,200 -1,800 Descending FlightAware ADS-B
02:39PM 40.3259 -75.3600 156° South 330 380 8,700 -1,740 Descending FlightAware ADS-B
02:39PM 40.3035 -75.3471 156° South 330 380 8,300 -1,560 Descending FlightAware ADS-B
02:39PM 40.2826 -75.3349 156° South 329 379 7,900 -1,560 Descending FlightAware ADS-B
02:40PM 40.2610 -75.3224 156° South 325 374 7,500 -1,380 Descending FlightAware ADS-B
02:40PM 40.2403 -75.3104 156° South 322 371 7,200 -1,200 Descending FlightAware ADS-B
02:40PM 40.2179 -75.2975 156° South 321 369 6,900 -780 Descending FlightAware ADS-B
02:40PM 40.1974 -75.2858 156° South 322 371 6,800 -600 Descending FlightAware ADS-B
02:41PM 40.1771 -75.2741 156° South 319 367 6,600 -1,200 Descending FlightAware ADS-B
02:41PM 40.1561 -75.2622 157° South 319 367 6,200 -1,140 Descending FlightAware ADS-B
02:41PM 40.1351 -75.2501 156° South 318 366 6,000 -600 Descending FlightAware ADS-B
02:41PM 40.1149 -75.2386 156° South 312 359 5,900 -240 Descending FlightAware ADS-B
02:42PM 40.0975 -75.2284 156° South 309 356 5,900  Level FlightAware ADS-B
02:42PM 40.0832 -75.2203 157° South 306 352 5,900  Level FlightAware ADS-B
02:42PM 40.0782 -75.2171 154° Southeast 306 352 5,900  Level FlightAware ADS-B
02:42PM 40.0739 -75.2141 152° Southeast 306 352 5,900 -780 Level FlightAware ADS-B
02:42PM 40.0691 -75.2095 144° Southeast 307 353 5,800 -720 Descending FlightAware ADS-B
02:42PM 40.0648 -75.2043 137° Southeast 303 349 5,800 660 Level FlightAware ADS-B
02:42PM 40.0603 -75.1976 131° Southeast 299 344 5,900 240 Climbing FlightAware ADS-B
02:42PM 40.0467 -75.1740 127° Southeast 285 328 5,900 -300 Level FlightAware ADS-B
02:43PM 40.0405 -75.1632 127° Southeast 276 318 5,800  Descending FlightAware ADS-B
02:43PM 40.0309 -75.1472 128° Southeast 271 312 5,900 180 Climbing FlightAware ADS-B
02:43PM 40.0190 -75.1278 129° Southeast 272 313 5,900  Level FlightAware ADS-B
02:43PM 40.0056 -75.1064 129° Southeast 266 306 5,900  Level FlightAware ADS-B
02:43PM 40.0018 -75.0999 127° Southeast 261 300 5,900 -600 Level FlightAware ADS-B
02:43PM 39.9993 -75.0939 119° Southeast 256 295 5,800 -780 Descending FlightAware ADS-B
02:44PM 39.9976 -75.0891 115° Southeast 252 290 5,800 480 Level FlightAware ADS-B
02:44PM 39.9953 -75.0758 103° East 244 281 5,900  Climbing FlightAware ADS-B
02:44PM 39.9954 -75.0684 89° East 241 277 5,800  Descending FlightAware ADS-B
02:44PM 39.9963 -75.0610 81° East 233 268 5,900  Climbing FlightAware ADS-B
02:44PM 39.9989 -75.0466 77° East 235 270 5,800 -960 Descending FlightAware ADS-B
02:44PM 40.0039 -75.0251 73° East 236 272 5,500 -960 Descending FlightAware ADS-B
02:45PM 40.0092 -75.0018 73° East 230 265 5,300 -960 Descending FlightAware ADS-B
02:45PM 40.0138 -74.9816 73° East 225 259 5,000 -1,020 Descending FlightAware ADS-B
02:45PM 40.0182 -74.9617 74° East 221 254 4,800 -900 Descending FlightAware ADS-B
02:45PM 40.0224 -74.9386 77° East 214 246 4,500 -1,140 Descending FlightAware ADS-B
02:46PM 40.0214 -74.9282 97° East 219 252 4,300 -1,140 Descending FlightAware ADS-B
02:46PM 40.0179 -74.9190 116° Southeast 217 250 4,200 -840 Descending FlightAware ADS-B
02:46PM 40.0130 -74.9121 133° Southeast 215 247 4,100 -1,200 Descending FlightAware ADS-B
02:46PM 40.0101 -74.9095 146° Southeast 212 244 4,000 -1,500 Descending FlightAware ADS-B
02:46PM 40.0062 -74.9070 154° Southeast 210 242 3,900 -480 Descending FlightAware ADS-B
02:46PM 39.9991 -74.9037 160° South 207 238 3,900  Level FlightAware ADS-B
02:46PM 39.9837 -74.8986 166° South 202 232 3,900  Level FlightAware ADS-B
02:46PM 39.9769 -74.8992 184° South 203 234 3,900  Level FlightAware ADS-B
02:47PM 39.9726 -74.9011 199° South 194 223 3,900  Level FlightAware ADS-B
02:47PM 39.9647 -74.9080 214° Southwest 187 215 3,900  Level FlightAware ADS-B
02:47PM 39.9624 -74.9104 219° Southwest 183 211 3,900 -480 Level FlightAware ADS-B
02:47PM 39.9554 -74.9187 222° Southwest 194 223 3,800 -240 Descending FlightAware ADS-B
02:47PM 39.9454 -74.9304 222° Southwest 189 217 3,800  Level FlightAware ADS-B
02:47PM 39.9351 -74.9423 222° Southwest 186 214 3,800 -600 Level FlightAware ADS-B
02:48PM 39.9254 -74.9537 222° Southwest 184 212 3,500 -1,380 Descending FlightAware ADS-B
02:48PM 39.9155 -74.9656 223° Southwest 187 215 3,100 -1,200 Descending FlightAware ADS-B
02:48PM 39.9062 -74.9780 226° Southwest 185 213 2,900 -1,200 Descending FlightAware ADS-B
02:48PM 39.9036 -74.9831 236° Southwest 180 207 2,700 -1,500 Descending FlightAware ADS-B
02:48PM 39.9026 -74.9860 246° West 178 205 2,700 -720 Level FlightAware ADS-B
02:49PM 39.9017 -74.9914 258° West 175 201 2,600 -1,140 Descending FlightAware ADS-B
02:49PM 39.9012 -74.9970 263° West 173 199 2,500 -1,320 Descending FlightAware ADS-B
02:49PM 39.9014 -75.0062 272° West 171 197 2,300 -960 Descending FlightAware ADS-B
02:49PM 39.9023 -75.0239 274° West 164 189 2,100 -540 Descending FlightAware ADS-B
02:49PM 39.9027 -75.0428 272° West 164 189 2,000 -480 Descending FlightAware ADS-B
02:49PM 39.9026 -75.0497 269° West 165 190 1,900  Descending FlightAware ADS-B
02:50PM 39.9021 -75.0636 267° West 164 189 2,000 180 Climbing FlightAware ADS-B
02:50PM 39.9016 -75.0771 267° West 167 192 2,000  Level FlightAware ADS-B
02:50PM 39.9013 -75.0869 268° West 155 178 2,000 -480 Level FlightAware ADS-B
02:50PM 39.9010 -75.0897 262° West 155 178 1,900 -900 Descending FlightAware ADS-B
02:50PM 39.9004 -75.0933 258° West 154 177 1,900 -840 Level FlightAware ADS-B
02:51PM 39.8975 -75.1088 256° West 145 167 1,600 -840 Descending FlightAware ADS-B
02:51PM 39.8956 -75.1187 256° West 146 168 1,500 -600 Descending FlightAware ADS-B
02:51PM 39.8941 -75.1268 256° West 145 167 1,400 -660 Descending FlightAware ADS-B
02:51PM 39.8926 -75.1346 256° West 139 160 1,300 -720 Descending FlightAware ADS-B
02:51PM 39.8901 -75.1478 256° West 149 171 1,100 -900 Descending FlightAware ADS-B
02:51PM 39.8884 -75.1569 256° West 146 168 900 -960 Descending FlightAware ADS-B
02:52PM 39.8870 -75.1641 256° West 140 161 800 -780 Descending FlightAware ADS-B
02:52PM 39.8845 -75.1770 256° West 145 167 600 -720 Descending FlightAware ADS-B
02:52PM 39.8801 -75.1991 255° West 144 166 300 -480 Descending FlightAware ADS-B
02:53PM 39.8761 -75.2183 255° West 135 155 200 -120 Descending FAA TRACON SMA TRACON (SMA)
02:53PM 39.8761 -75.2183 293° West 135 155 200  Level FAA TRACON SMA TRACON (SMA)
02:55PM 39.8667 -75.2333 270° West  Level FlightAware Approximate